sensor_id;sensor_type;location;lat;lon;timestamp;temperature;humidity
34434;DHT22;34290;48.562;13.384;2022-07-17T00:02:23;11.30;99.90
34434;DHT22;34290;48.562;13.384;2022-07-17T00:04:50;11.30;99.90
34434;DHT22;34290;48.562;13.384;2022-07-17T00:07:17;11.30;99.90
34434;DHT22;34290;48.562;13.384;2022-07-17T00:09:49;11.20;99.90
34434;DHT22;34290;48.562;13.384;2022-07-17T00:12:16;11.20;99.90
34434;DHT22;34290;48.562;13.384;2022-07-17T00:14:43;11.20;99.90
34434;DHT22;34290;48.562;13.384;2022-07-17T00:17:10;11.20;99.90
34434;DHT22;34290;48.562;13.384;2022-07-17T00:19:38;11.20;99.90
34434;DHT22;34290;48.562;13.384;2022-07-17T00:22:05;11.20;99.90
34434;DHT22;34290;48.562;13.384;2022-07-17T00:24:32;11.10;99.90
34434;DHT22;34290;48.562;13.384;2022-07-17T00:27:00;11.10;99.90
34434;DHT22;34290;48.562;13.384;2022-07-17T00:29:27;11.20;99.90
34434;DHT22;34290;48.562;13.384;2022-07-17T00:31:54;11.10;99.90
34434;DHT22;34290;48.562;13.384;2022-07-17T00:34:21;11.10;99.90
34434;DHT22;34290;48.562;13.384;2022-07-17T00:36:50;11.00;99.90
34434;DHT22;34290;48.562;13.384;2022-07-17T00:39:17;11.00;99.90
34434;DHT22;34290;48.562;13.384;2022-07-17T00:41:45;10.90;99.90
34434;DHT22;34290;48.562;13.384;2022-07-17T00:44:14;10.90;99.90
34434;DHT22;34290;48.562;13.384;2022-07-17T00:46:41;10.80;99.90
34434;DHT22;34290;48.562;13.384;2022-07-17T00:49:08;10.70;99.90
34434;DHT22;34290;48.562;13.384;2022-07-17T00:51:35;10.70;99.90
34434;DHT22;34290;48.562;13.384;2022-07-17T00:54:03;10.60;99.90
34434;DHT22;34290;48.562;13.384;2022-07-17T00:56:31;10.60;99.90
34434;DHT22;34290;48.562;13.384;2022-07-17T00:59:01;10.60;99.90
34434;DHT22;34290;48.562;13.384;2022-07-17T01:01:31;10.60;99.90
34434;DHT22;34290;48.562;13.384;2022-07-17T01:03:58;10.60;99.90
34434;DHT22;34290;48.562;13.384;2022-07-17T01:06:28;10.60;99.90
34434;DHT22;34290;48.562;13.384;2022-07-17T01:08:56;10.50;99.90
34434;DHT22;34290;48.562;13.384;2022-07-17T01:11:23;10.50;99.90
34434;DHT22;34290;48.562;13.384;2022-07-17T01:13:50;10.50;99.90
34434;DHT22;34290;48.562;13.384;2022-07-17T01:16:17;10.50;99.90
34434;DHT22;34290;48.562;13.384;2022-07-17T01:18:46;10.50;99.90
34434;DHT22;34290;48.562;13.384;2022-07-17T01:21:14;10.40;99.90
34434;DHT22;34290;48.562;13.384;2022-07-17T01:23:41;10.40;99.90
34434;DHT22;34290;48.562;13.384;2022-07-17T01:26:08;10.40;99.90
34434;DHT22;34290;48.562;13.384;2022-07-17T01:28:35;10.30;99.90
34434;DHT22;34290;48.562;13.384;2022-07-17T01:31:03;10.20;99.90
34434;DHT22;34290;48.562;13.384;2022-07-17T01:33:30;10.10;99.90
34434;DHT22;34290;48.562;13.384;2022-07-17T01:35:57;10.20;99.90
34434;DHT22;34290;48.562;13.384;2022-07-17T01:38:25;10.10;99.90
34434;DHT22;34290;48.562;13.384;2022-07-17T01:40:52;10.00;99.90
34434;DHT22;34290;48.562;13.384;2022-07-17T01:43:19;10.00;99.90
34434;DHT22;34290;48.562;13.384;2022-07-17T01:45:50;10.00;99.90
34434;DHT22;34290;48.562;13.384;2022-07-17T01:48:25;9.90;99.90
34434;DHT22;34290;48.562;13.384;2022-07-17T01:50:52;9.90;99.90
34434;DHT22;34290;48.562;13.384;2022-07-17T01:53:19;10.00;99.90
34434;DHT22;34290;48.562;13.384;2022-07-17T01:55:48;10.00;99.90
34434;DHT22;34290;48.562;13.384;2022-07-17T01:58:15;10.00;99.90
34434;DHT22;34290;48.562;13.384;2022-07-17T02:00:42;9.90;99.90
34434;DHT22;34290;48.562;13.384;2022-07-17T02:03:10;9.90;99.90
34434;DHT22;34290;48.562;13.384;2022-07-17T02:05:39;9.80;99.90
34434;DHT22;34290;48.562;13.384;2022-07-17T02:08:06;9.70;99.90
34434;DHT22;34290;48.562;13.384;2022-07-17T02:10:34;9.70;99.90
34434;DHT22;34290;48.562;13.384;2022-07-17T02:13:02;9.70;99.90
34434;DHT22;34290;48.562;13.384;2022-07-17T02:15:29;9.70;99.90
34434;DHT22;34290;48.562;13.384;2022-07-17T02:17:57;9.70;99.90
34434;DHT22;34290;48.562;13.384;2022-07-17T02:20:24;9.60;99.90
34434;DHT22;34290;48.562;13.384;2022-07-17T02:22:51;9.60;99.90
34434;DHT22;34290;48.562;13.384;2022-07-17T02:25:18;9.60;99.90
34434;DHT22;34290;48.562;13.384;2022-07-17T02:27:46;9.60;99.90
34434;DHT22;34290;48.562;13.384;2022-07-17T02:30:16;9.60;99.90
34434;DHT22;34290;48.562;13.384;2022-07-17T02:32:44;9.60;99.90
34434;DHT22;34290;48.562;13.384;2022-07-17T02:35:12;9.60;99.90
34434;DHT22;34290;48.562;13.384;2022-07-17T02:37:39;9.50;99.90
34434;DHT22;34290;48.562;13.384;2022-07-17T02:40:09;9.60;99.90
34434;DHT22;34290;48.562;13.384;2022-07-17T02:42:36;9.50;99.90
34434;DHT22;34290;48.562;13.384;2022-07-17T02:45:04;9.60;99.90
34434;DHT22;34290;48.562;13.384;2022-07-17T02:47:35;9.50;99.90
34434;DHT22;34290;48.562;13.384;2022-07-17T02:50:04;9.40;99.90
34434;DHT22;34290;48.562;13.384;2022-07-17T02:52:32;9.30;99.90
34434;DHT22;34290;48.562;13.384;2022-07-17T02:54:59;9.30;99.90
34434;DHT22;34290;48.562;13.384;2022-07-17T02:57:26;9.30;99.90
34434;DHT22;34290;48.562;13.384;2022-07-17T02:59:53;9.30;99.90
34434;DHT22;34290;48.562;13.384;2022-07-17T03:02:20;9.30;99.90
34434;DHT22;34290;48.562;13.384;2022-07-17T03:04:48;9.20;99.90
34434;DHT22;34290;48.562;13.384;2022-07-17T03:07:15;9.20;99.90
34434;DHT22;34290;48.562;13.384;2022-07-17T03:09:42;9.20;99.90
34434;DHT22;34290;48.562;13.384;2022-07-17T03:12:09;9.20;99.90
34434;DHT22;34290;48.562;13.384;2022-07-17T03:14:37;9.20;99.90
34434;DHT22;34290;48.562;13.384;2022-07-17T03:17:04;9.10;99.90
34434;DHT22;34290;48.562;13.384;2022-07-17T03:19:31;9.10;99.90
34434;DHT22;34290;48.562;13.384;2022-07-17T03:22:00;9.10;99.90
34434;DHT22;34290;48.562;13.384;2022-07-17T03:24:27;9.10;99.90
34434;DHT22;34290;48.562;13.384;2022-07-17T03:26:54;9.10;99.90
34434;DHT22;34290;48.562;13.384;2022-07-17T03:29:21;9.10;99.90
34434;DHT22;34290;48.562;13.384;2022-07-17T03:31:48;9.00;99.90
34434;DHT22;34290;48.562;13.384;2022-07-17T03:34:15;9.00;99.90
34434;DHT22;34290;48.562;13.384;2022-07-17T03:36:42;9.00;99.90
34434;DHT22;34290;48.562;13.384;2022-07-17T03:39:11;9.10;99.90
34434;DHT22;34290;48.562;13.384;2022-07-17T03:41:38;9.10;99.90
34434;DHT22;34290;48.562;13.384;2022-07-17T03:44:05;9.20;99.90
34434;DHT22;34290;48.562;13.384;2022-07-17T03:46:32;9.30;99.90
34434;DHT22;34290;48.562;13.384;2022-07-17T03:48:59;9.30;99.90
34434;DHT22;34290;48.562;13.384;2022-07-17T03:51:26;9.40;99.90
34434;DHT22;34290;48.562;13.384;2022-07-17T03:53:53;9.50;99.90
34434;DHT22;34290;48.562;13.384;2022-07-17T03:56:22;9.50;99.90
34434;DHT22;34290;48.562;13.384;2022-07-17T03:58:49;9.60;99.90
34434;DHT22;34290;48.562;13.384;2022-07-17T04:01:16;9.70;99.90
34434;DHT22;34290;48.562;13.384;2022-07-17T04:03:45;9.80;99.90
34434;DHT22;34290;48.562;13.384;2022-07-17T04:06:12;9.90;99.90
34434;DHT22;34290;48.562;13.384;2022-07-17T04:08:39;10.10;99.90
34434;DHT22;34290;48.562;13.384;2022-07-17T04:11:07;10.30;99.90
34434;DHT22;34290;48.562;13.384;2022-07-17T04:13:35;10.30;99.90
34434;DHT22;34290;48.562;13.384;2022-07-17T04:16:02;10.40;99.90
34434;DHT22;34290;48.562;13.384;2022-07-17T04:18:32;10.40;99.90
34434;DHT22;34290;48.562;13.384;2022-07-17T04:21:01;10.40;99.90
34434;DHT22;34290;48.562;13.384;2022-07-17T04:23:28;10.50;99.90
34434;DHT22;34290;48.562;13.384;2022-07-17T04:25:55;10.80;99.90
34434;DHT22;34290;48.562;13.384;2022-07-17T04:28:22;10.90;99.90
34434;DHT22;34290;48.562;13.384;2022-07-17T04:30:51;11.20;99.90
34434;DHT22;34290;48.562;13.384;2022-07-17T04:33:18;11.40;99.90
34434;DHT22;34290;48.562;13.384;2022-07-17T04:35:45;11.70;99.90
34434;DHT22;34290;48.562;13.384;2022-07-17T04:38:12;12.10;99.90
34434;DHT22;34290;48.562;13.384;2022-07-17T04:40:40;13.20;99.90
34434;DHT22;34290;48.562;13.384;2022-07-17T04:43:07;13.50;99.90
34434;DHT22;34290;48.562;13.384;2022-07-17T04:45:34;14.20;99.90
34434;DHT22;34290;48.562;13.384;2022-07-17T04:48:04;14.70;99.90
34434;DHT22;34290;48.562;13.384;2022-07-17T04:50:31;15.00;99.90
34434;DHT22;34290;48.562;13.384;2022-07-17T04:52:59;15.10;99.90
34434;DHT22;34290;48.562;13.384;2022-07-17T04:55:27;15.10;99.90
34434;DHT22;34290;48.562;13.384;2022-07-17T04:57:54;15.10;99.90
34434;DHT22;34290;48.562;13.384;2022-07-17T05:00:21;15.10;99.90
34434;DHT22;34290;48.562;13.384;2022-07-17T05:02:48;15.20;99.90
34434;DHT22;34290;48.562;13.384;2022-07-17T05:05:16;15.60;99.90
34434;DHT22;34290;48.562;13.384;2022-07-17T05:07:43;16.80;99.90
34434;DHT22;34290;48.562;13.384;2022-07-17T05:10:10;17.90;99.90
34434;DHT22;34290;48.562;13.384;2022-07-17T05:12:37;17.90;99.90
34434;DHT22;34290;48.562;13.384;2022-07-17T05:15:06;18.10;99.90
34434;DHT22;34290;48.562;13.384;2022-07-17T05:17:33;18.10;99.90
34434;DHT22;34290;48.562;13.384;2022-07-17T05:20:00;18.20;99.90
34434;DHT22;34290;48.562;13.384;2022-07-17T05:22:28;18.30;99.90
34434;DHT22;34290;48.562;13.384;2022-07-17T05:24:55;19.10;98.80
34434;DHT22;34290;48.562;13.384;2022-07-17T05:27:27;20.10;96.80
34434;DHT22;34290;48.562;13.384;2022-07-17T05:29:54;21.80;93.70
34434;DHT22;34290;48.562;13.384;2022-07-17T05:32:21;21.90;93.80
34434;DHT22;34290;48.562;13.384;2022-07-17T05:34:48;22.70;92.60
34434;DHT22;34290;48.562;13.384;2022-07-17T05:37:15;22.90;91.10
34434;DHT22;34290;48.562;13.384;2022-07-17T05:39:43;22.60;90.50
34434;DHT22;34290;48.562;13.384;2022-07-17T05:42:10;22.70;90.90
34434;DHT22;34290;48.562;13.384;2022-07-17T05:44:37;22.90;90.80
34434;DHT22;34290;48.562;13.384;2022-07-17T05:47:04;23.40;90.30
34434;DHT22;34290;48.562;13.384;2022-07-17T05:49:32;23.50;90.50
34434;DHT22;34290;48.562;13.384;2022-07-17T05:51:59;24.00;89.90
34434;DHT22;34290;48.562;13.384;2022-07-17T05:54:26;24.30;88.90
34434;DHT22;34290;48.562;13.384;2022-07-17T05:56:54;24.60;87.90
34434;DHT22;34290;48.562;13.384;2022-07-17T05:59:21;24.30;87.20
34434;DHT22;34290;48.562;13.384;2022-07-17T06:01:48;24.70;86.60
34434;DHT22;34290;48.562;13.384;2022-07-17T06:04:15;25.40;84.80
34434;DHT22;34290;48.562;13.384;2022-07-17T06:06:42;26.30;83.60
34434;DHT22;34290;48.562;13.384;2022-07-17T06:09:09;26.60;82.30
34434;DHT22;34290;48.562;13.384;2022-07-17T06:11:36;26.90;82.20
34434;DHT22;34290;48.562;13.384;2022-07-17T06:14:06;27.10;83.10
34434;DHT22;34290;48.562;13.384;2022-07-17T06:16:33;27.30;80.60
34434;DHT22;34290;48.562;13.384;2022-07-17T06:19:00;27.20;82.80
34434;DHT22;34290;48.562;13.384;2022-07-17T06:21:27;27.10;79.80
34434;DHT22;34290;48.562;13.384;2022-07-17T06:23:54;27.20;80.90
34434;DHT22;34290;48.562;13.384;2022-07-17T06:26:21;26.90;81.10
34434;DHT22;34290;48.562;13.384;2022-07-17T06:28:48;26.60;78.80
34434;DHT22;34290;48.562;13.384;2022-07-17T06:31:17;27.70;79.10
34434;DHT22;34290;48.562;13.384;2022-07-17T06:33:44;28.30;79.00
34434;DHT22;34290;48.562;13.384;2022-07-17T06:36:11;29.10;76.20
34434;DHT22;34290;48.562;13.384;2022-07-17T06:38:38;29.30;74.80
34434;DHT22;34290;48.562;13.384;2022-07-17T06:41:05;29.00;73.20
34434;DHT22;34290;48.562;13.384;2022-07-17T06:43:32;28.90;74.40
34434;DHT22;34290;48.562;13.384;2022-07-17T06:45:59;28.80;74.60
34434;DHT22;34290;48.562;13.384;2022-07-17T06:48:28;28.20;72.70
34434;DHT22;34290;48.562;13.384;2022-07-17T06:50:55;27.70;72.70
34434;DHT22;34290;48.562;13.384;2022-07-17T06:53:22;27.50;72.40
34434;DHT22;34290;48.562;13.384;2022-07-17T06:55:49;27.90;73.20
34434;DHT22;34290;48.562;13.384;2022-07-17T06:58:17;28.70;72.70
34434;DHT22;34290;48.562;13.384;2022-07-17T07:00:44;27.50;71.00
34434;DHT22;34290;48.562;13.384;2022-07-17T07:03:11;27.30;71.50
34434;DHT22;34290;48.562;13.384;2022-07-17T07:05:40;28.30;71.20
34434;DHT22;34290;48.562;13.384;2022-07-17T07:08:07;29.00;70.70
34434;DHT22;34290;48.562;13.384;2022-07-17T07:10:34;29.70;69.80
34434;DHT22;34290;48.562;13.384;2022-07-17T07:13:01;29.90;69.40
34434;DHT22;34290;48.562;13.384;2022-07-17T07:15:30;29.80;68.60
34434;DHT22;34290;48.562;13.384;2022-07-17T07:17:57;30.10;68.10
34434;DHT22;34290;48.562;13.384;2022-07-17T07:20:24;29.70;67.40
34434;DHT22;34290;48.562;13.384;2022-07-17T07:22:53;29.30;67.40
34434;DHT22;34290;48.562;13.384;2022-07-17T07:25:21;30.10;67.40
34434;DHT22;34290;48.562;13.384;2022-07-17T07:27:51;30.70;66.60
34434;DHT22;34290;48.562;13.384;2022-07-17T07:30:18;30.70;66.40
34434;DHT22;34290;48.562;13.384;2022-07-17T07:32:45;31.00;66.20
34434;DHT22;34290;48.562;13.384;2022-07-17T07:35:12;32.00;65.60
34434;DHT22;34290;48.562;13.384;2022-07-17T07:37:39;31.90;64.10
34434;DHT22;34290;48.562;13.384;2022-07-17T07:40:09;31.70;63.50
34434;DHT22;34290;48.562;13.384;2022-07-17T07:42:36;31.70;65.20
34434;DHT22;34290;48.562;13.384;2022-07-17T07:45:04;32.10;65.00
34434;DHT22;34290;48.562;13.384;2022-07-17T07:47:32;32.40;63.20
34434;DHT22;34290;48.562;13.384;2022-07-17T07:49:59;32.10;63.40
34434;DHT22;34290;48.562;13.384;2022-07-17T07:52:26;31.90;64.20
34434;DHT22;34290;48.562;13.384;2022-07-17T07:54:53;31.00;63.40
34434;DHT22;34290;48.562;13.384;2022-07-17T07:57:21;30.40;66.10
34434;DHT22;34290;48.562;13.384;2022-07-17T07:59:52;30.80;64.00
34434;DHT22;34290;48.562;13.384;2022-07-17T08:02:19;30.60;64.60
34434;DHT22;34290;48.562;13.384;2022-07-17T08:04:46;29.00;66.30
34434;DHT22;34290;48.562;13.384;2022-07-17T08:07:13;29.20;66.30
34434;DHT22;34290;48.562;13.384;2022-07-17T08:09:40;30.20;65.00
34434;DHT22;34290;48.562;13.384;2022-07-17T08:12:07;30.20;65.50
34434;DHT22;34290;48.562;13.384;2022-07-17T08:14:36;31.60;66.30
34434;DHT22;34290;48.562;13.384;2022-07-17T08:17:03;31.00;64.00
34434;DHT22;34290;48.562;13.384;2022-07-17T08:19:30;30.80;64.70
34434;DHT22;34290;48.562;13.384;2022-07-17T08:21:57;30.30;66.30
34434;DHT22;34290;48.562;13.384;2022-07-17T08:24:24;31.00;65.70
34434;DHT22;34290;48.562;13.384;2022-07-17T08:26:51;30.90;64.90
34434;DHT22;34290;48.562;13.384;2022-07-17T08:29:19;31.30;65.90
34434;DHT22;34290;48.562;13.384;2022-07-17T08:31:47;31.30;64.00
34434;DHT22;34290;48.562;13.384;2022-07-17T08:34:15;32.00;63.00
34434;DHT22;34290;48.562;13.384;2022-07-17T08:36:44;30.70;64.00
34434;DHT22;34290;48.562;13.384;2022-07-17T08:39:11;29.70;66.80
34434;DHT22;34290;48.562;13.384;2022-07-17T08:41:38;29.20;66.80
34434;DHT22;34290;48.562;13.384;2022-07-17T08:44:06;28.30;67.70
34434;DHT22;34290;48.562;13.384;2022-07-17T08:46:36;29.00;67.40
34434;DHT22;34290;48.562;13.384;2022-07-17T08:49:05;30.70;67.60
34434;DHT22;34290;48.562;13.384;2022-07-17T08:51:34;32.80;63.40
34434;DHT22;34290;48.562;13.384;2022-07-17T08:54:06;33.30;62.30
34434;DHT22;34290;48.562;13.384;2022-07-17T08:56:33;30.70;64.50
34434;DHT22;34290;48.562;13.384;2022-07-17T08:59:00;29.60;66.50
34434;DHT22;34290;48.562;13.384;2022-07-17T09:01:27;30.40;67.70
34434;DHT22;34290;48.562;13.384;2022-07-17T09:03:55;31.30;66.80
34434;DHT22;34290;48.562;13.384;2022-07-17T09:06:25;32.20;65.20
34434;DHT22;34290;48.562;13.384;2022-07-17T09:09:05;32.60;64.20
34434;DHT22;34290;48.562;13.384;2022-07-17T09:11:42;32.70;61.90
34434;DHT22;34290;48.562;13.384;2022-07-17T09:14:10;32.70;64.30
34434;DHT22;34290;48.562;13.384;2022-07-17T09:16:48;32.70;64.70
34434;DHT22;34290;48.562;13.384;2022-07-17T09:19:27;32.20;63.10
34434;DHT22;34290;48.562;13.384;2022-07-17T09:22:07;31.60;63.40
34434;DHT22;34290;48.562;13.384;2022-07-17T09:24:42;31.20;63.90
34434;DHT22;34290;48.562;13.384;2022-07-17T09:27:10;31.10;64.00
34434;DHT22;34290;48.562;13.384;2022-07-17T09:29:50;30.40;62.80
34434;DHT22;34290;48.562;13.384;2022-07-17T09:32:18;30.30;63.60
34434;DHT22;34290;48.562;13.384;2022-07-17T09:34:46;30.20;64.50
34434;DHT22;34290;48.562;13.384;2022-07-17T09:37:18;30.00;63.80
34434;DHT22;34290;48.562;13.384;2022-07-17T09:39:45;29.00;65.50
34434;DHT22;34290;48.562;13.384;2022-07-17T09:42:21;29.00;65.50
34434;DHT22;34290;48.562;13.384;2022-07-17T09:44:55;28.90;66.60
34434;DHT22;34290;48.562;13.384;2022-07-17T09:47:22;28.90;68.20
34434;DHT22;34290;48.562;13.384;2022-07-17T09:49:51;28.80;66.40
34434;DHT22;34290;48.562;13.384;2022-07-17T09:52:22;28.70;67.10
34434;DHT22;34290;48.562;13.384;2022-07-17T09:54:52;28.80;69.30
34434;DHT22;34290;48.562;13.384;2022-07-17T09:57:19;28.70;67.90
34434;DHT22;34290;48.562;13.384;2022-07-17T09:59:47;28.90;67.40
34434;DHT22;34290;48.562;13.384;2022-07-17T10:02:15;28.90;67.80
34434;DHT22;34290;48.562;13.384;2022-07-17T10:04:45;28.90;65.60
34434;DHT22;34290;48.562;13.384;2022-07-17T10:07:12;28.30;64.60
34434;DHT22;34290;48.562;13.384;2022-07-17T10:09:41;27.60;65.30
34434;DHT22;34290;48.562;13.384;2022-07-17T10:12:08;27.60;65.60
34434;DHT22;34290;48.562;13.384;2022-07-17T10:14:35;27.20;66.00
34434;DHT22;34290;48.562;13.384;2022-07-17T10:17:07;27.30;63.80
34434;DHT22;34290;48.562;13.384;2022-07-17T10:19:44;27.20;64.70
34434;DHT22;34290;48.562;13.384;2022-07-17T10:22:11;27.10;65.40
34434;DHT22;34290;48.562;13.384;2022-07-17T10:24:46;27.40;64.20
34434;DHT22;34290;48.562;13.384;2022-07-17T10:27:19;27.10;64.00
34434;DHT22;34290;48.562;13.384;2022-07-17T10:29:46;26.40;63.60
34434;DHT22;34290;48.562;13.384;2022-07-17T10:32:18;26.30;63.50
34434;DHT22;34290;48.562;13.384;2022-07-17T10:34:46;26.20;64.80
34434;DHT22;34290;48.562;13.384;2022-07-17T10:37:19;26.70;65.90
34434;DHT22;34290;48.562;13.384;2022-07-17T10:39:55;26.80;62.60
34434;DHT22;34290;48.562;13.384;2022-07-17T10:42:43;26.90;63.30
34434;DHT22;34290;48.562;13.384;2022-07-17T10:45:12;26.60;60.90
34434;DHT22;34290;48.562;13.384;2022-07-17T10:47:48;26.50;59.00
34434;DHT22;34290;48.562;13.384;2022-07-17T10:50:16;27.00;62.70
34434;DHT22;34290;48.562;13.384;2022-07-17T10:52:44;27.10;63.90
34434;DHT22;34290;48.562;13.384;2022-07-17T10:55:19;27.50;63.10
34434;DHT22;34290;48.562;13.384;2022-07-17T10:57:47;27.40;61.30
34434;DHT22;34290;48.562;13.384;2022-07-17T11:00:15;26.10;59.60
34434;DHT22;34290;48.562;13.384;2022-07-17T11:02:43;25.70;62.60
34434;DHT22;34290;48.562;13.384;2022-07-17T11:05:12;25.30;62.40
34434;DHT22;34290;48.562;13.384;2022-07-17T11:07:50;25.30;61.30
34434;DHT22;34290;48.562;13.384;2022-07-17T11:10:20;25.60;61.00
34434;DHT22;34290;48.562;13.384;2022-07-17T11:12:47;25.60;61.60
34434;DHT22;34290;48.562;13.384;2022-07-17T11:15:15;25.70;63.20
34434;DHT22;34290;48.562;13.384;2022-07-17T11:17:47;25.30;61.60
34434;DHT22;34290;48.562;13.384;2022-07-17T11:20:15;25.40;61.60
34434;DHT22;34290;48.562;13.384;2022-07-17T11:22:42;25.50;64.30
34434;DHT22;34290;48.562;13.384;2022-07-17T11:25:10;26.00;63.50
34434;DHT22;34290;48.562;13.384;2022-07-17T11:27:39;26.10;61.10
34434;DHT22;34290;48.562;13.384;2022-07-17T11:30:11;25.90;63.20
34434;DHT22;34290;48.562;13.384;2022-07-17T11:32:39;26.10;64.50
34434;DHT22;34290;48.562;13.384;2022-07-17T11:35:20;26.00;61.00
34434;DHT22;34290;48.562;13.384;2022-07-17T11:37:48;25.90;60.50
34434;DHT22;34290;48.562;13.384;2022-07-17T11:40:16;26.40;60.20
34434;DHT22;34290;48.562;13.384;2022-07-17T11:42:45;26.40;61.80
34434;DHT22;34290;48.562;13.384;2022-07-17T11:45:12;26.20;61.00
34434;DHT22;34290;48.562;13.384;2022-07-17T11:47:39;26.40;62.60
34434;DHT22;34290;48.562;13.384;2022-07-17T11:50:10;26.40;57.60
34434;DHT22;34290;48.562;13.384;2022-07-17T11:52:42;26.30;59.20
34434;DHT22;34290;48.562;13.384;2022-07-17T11:55:10;26.40;59.20
34434;DHT22;34290;48.562;13.384;2022-07-17T11:57:43;26.40;60.00
34434;DHT22;34290;48.562;13.384;2022-07-17T12:00:16;26.20;60.90
34434;DHT22;34290;48.562;13.384;2022-07-17T12:02:44;26.20;60.80
34434;DHT22;34290;48.562;13.384;2022-07-17T12:05:11;26.30;63.10
34434;DHT22;34290;48.562;13.384;2022-07-17T12:07:41;26.60;61.80
34434;DHT22;34290;48.562;13.384;2022-07-17T12:10:15;27.00;57.90
34434;DHT22;34290;48.562;13.384;2022-07-17T12:12:55;27.00;58.60
34434;DHT22;34290;48.562;13.384;2022-07-17T12:15:34;26.60;60.70
34434;DHT22;34290;48.562;13.384;2022-07-17T12:18:03;26.80;61.80
34434;DHT22;34290;48.562;13.384;2022-07-17T12:20:41;27.00;59.50
34434;DHT22;34290;48.562;13.384;2022-07-17T12:23:25;27.20;60.80
34434;DHT22;34290;48.562;13.384;2022-07-17T12:26:08;27.30;61.00
34434;DHT22;34290;48.562;13.384;2022-07-17T12:28:36;27.20;58.70
34434;DHT22;34290;48.562;13.384;2022-07-17T12:31:07;26.60;58.80
34434;DHT22;34290;48.562;13.384;2022-07-17T12:33:35;26.50;60.70
34434;DHT22;34290;48.562;13.384;2022-07-17T12:36:02;26.40;61.30
34434;DHT22;34290;48.562;13.384;2022-07-17T12:38:29;26.10;60.80
34434;DHT22;34290;48.562;13.384;2022-07-17T12:40:57;26.30;59.80
34434;DHT22;34290;48.562;13.384;2022-07-17T12:43:27;26.30;59.00
34434;DHT22;34290;48.562;13.384;2022-07-17T12:45:54;26.10;60.20
34434;DHT22;34290;48.562;13.384;2022-07-17T12:48:22;26.30;61.70
34434;DHT22;34290;48.562;13.384;2022-07-17T12:50:50;25.80;61.50
34434;DHT22;34290;48.562;13.384;2022-07-17T12:53:17;26.10;63.30
34434;DHT22;34290;48.562;13.384;2022-07-17T12:55:44;26.30;61.00
34434;DHT22;34290;48.562;13.384;2022-07-17T12:58:13;26.30;62.90
34434;DHT22;34290;48.562;13.384;2022-07-17T13:00:40;26.30;60.90
34434;DHT22;34290;48.562;13.384;2022-07-17T13:03:07;26.40;62.00
34434;DHT22;34290;48.562;13.384;2022-07-17T13:05:38;26.60;63.10
34434;DHT22;34290;48.562;13.384;2022-07-17T13:08:05;26.80;60.40
34434;DHT22;34290;48.562;13.384;2022-07-17T13:10:34;27.00;61.60
34434;DHT22;34290;48.562;13.384;2022-07-17T13:13:01;27.10;61.10
34434;DHT22;34290;48.562;13.384;2022-07-17T13:15:29;27.00;60.00
34434;DHT22;34290;48.562;13.384;2022-07-17T13:17:57;27.20;61.60
34434;DHT22;34290;48.562;13.384;2022-07-17T13:20:26;27.40;61.20
34434;DHT22;34290;48.562;13.384;2022-07-17T13:23:00;27.40;63.20
34434;DHT22;34290;48.562;13.384;2022-07-17T13:25:29;27.40;61.40
34434;DHT22;34290;48.562;13.384;2022-07-17T13:27:58;27.50;62.40
34434;DHT22;34290;48.562;13.384;2022-07-17T13:30:28;27.10;60.20
34434;DHT22;34290;48.562;13.384;2022-07-17T13:32:55;27.10;60.90
34434;DHT22;34290;48.562;13.384;2022-07-17T13:35:24;27.30;61.10
34434;DHT22;34290;48.562;13.384;2022-07-17T13:37:51;27.20;61.40
34434;DHT22;34290;48.562;13.384;2022-07-17T13:40:20;26.80;60.80
34434;DHT22;34290;48.562;13.384;2022-07-17T13:42:55;26.60;61.10
34434;DHT22;34290;48.562;13.384;2022-07-17T13:45:22;26.30;61.70
34434;DHT22;34290;48.562;13.384;2022-07-17T13:47:50;26.30;61.30
34434;DHT22;34290;48.562;13.384;2022-07-17T13:50:18;26.30;60.30
34434;DHT22;34290;48.562;13.384;2022-07-17T13:52:45;26.30;60.50
34434;DHT22;34290;48.562;13.384;2022-07-17T13:55:12;26.50;62.50
34434;DHT22;34290;48.562;13.384;2022-07-17T13:57:41;25.30;60.40
34434;DHT22;34290;48.562;13.384;2022-07-17T14:00:09;26.90;60.10
34434;DHT22;34290;48.562;13.384;2022-07-17T14:02:40;26.90;60.00
34434;DHT22;34290;48.562;13.384;2022-07-17T14:05:09;27.00;62.40
34434;DHT22;34290;48.562;13.384;2022-07-17T14:07:37;27.10;63.10
34434;DHT22;34290;48.562;13.384;2022-07-17T14:10:06;27.20;61.00
34434;DHT22;34290;48.562;13.384;2022-07-17T14:12:33;27.20;60.70
34434;DHT22;34290;48.562;13.384;2022-07-17T14:15:03;26.90;60.00
34434;DHT22;34290;48.562;13.384;2022-07-17T14:17:30;26.90;61.10
34434;DHT22;34290;48.562;13.384;2022-07-17T14:19:57;27.00;61.30
34434;DHT22;34290;48.562;13.384;2022-07-17T14:22:24;27.00;62.90
34434;DHT22;34290;48.562;13.384;2022-07-17T14:24:51;26.90;63.20
34434;DHT22;34290;48.562;13.384;2022-07-17T14:27:18;27.10;63.80
34434;DHT22;34290;48.562;13.384;2022-07-17T14:29:47;26.90;63.30
34434;DHT22;34290;48.562;13.384;2022-07-17T14:32:19;26.90;63.80
34434;DHT22;34290;48.562;13.384;2022-07-17T14:34:46;26.90;65.40
34434;DHT22;34290;48.562;13.384;2022-07-17T14:37:13;27.00;62.50
34434;DHT22;34290;48.562;13.384;2022-07-17T14:39:40;27.20;63.70
34434;DHT22;34290;48.562;13.384;2022-07-17T14:42:07;27.20;64.20
34434;DHT22;34290;48.562;13.384;2022-07-17T14:44:34;27.20;62.70
34434;DHT22;34290;48.562;13.384;2022-07-17T14:47:01;27.20;64.70
34434;DHT22;34290;48.562;13.384;2022-07-17T14:49:31;26.90;65.40
34434;DHT22;34290;48.562;13.384;2022-07-17T14:51:59;27.00;63.80
34434;DHT22;34290;48.562;13.384;2022-07-17T14:54:26;27.00;64.50
34434;DHT22;34290;48.562;13.384;2022-07-17T14:56:53;27.00;64.00
34434;DHT22;34290;48.562;13.384;2022-07-17T14:59:21;27.10;64.30
34434;DHT22;34290;48.562;13.384;2022-07-17T15:01:48;27.00;62.10
34434;DHT22;34290;48.562;13.384;2022-07-17T15:04:15;27.00;64.40
34434;DHT22;34290;48.562;13.384;2022-07-17T15:06:43;27.00;64.70
34434;DHT22;34290;48.562;13.384;2022-07-17T15:09:11;27.00;66.10
34434;DHT22;34290;48.562;13.384;2022-07-17T15:11:38;26.90;64.70
34434;DHT22;34290;48.562;13.384;2022-07-17T15:14:05;26.90;65.80
34434;DHT22;34290;48.562;13.384;2022-07-17T15:16:32;26.90;64.80
34434;DHT22;34290;48.562;13.384;2022-07-17T15:18:59;26.70;64.50
34434;DHT22;34290;48.562;13.384;2022-07-17T15:21:27;26.70;65.20
34434;DHT22;34290;48.562;13.384;2022-07-17T15:23:56;26.70;63.30
34434;DHT22;34290;48.562;13.384;2022-07-17T15:26:23;26.70;65.00